sensor_id;sensor_type;location;lat;lon;timestamp;P1;P4;P2;P0;N10;N4;N25;N1;N05;TS
43196;SPS30;28816;49.852;18.282;2023-02-01T00:01:52;5.820000;;5.800000;5.490000;;;;;;
43196;SPS30;28816;49.852;18.282;2023-02-01T00:06:55;6.300000;;6.210000;6.030000;;;;;;
43196;SPS30;28816;49.852;18.282;2023-02-01T00:11:57;5.480000;;5.440000;5.230000;;;;;;
43196;SPS30;28816;49.852;18.282;2023-02-01T00:16:59;5.400000;;5.420000;5.040000;;;;;;
43196;SPS30;28816;49.852;18.282;2023-02-01T00:22:01;5.360000;;5.330000;5.050000;;;;;;
43196;SPS30;28816;49.852;18.282;2023-02-01T00:27:03;5.840000;;5.790000;5.570000;;;;;;
43196;SPS30;28816;49.852;18.282;2023-02-01T00:32:05;5.730000;;5.790000;5.400000;;;;;;
43196;SPS30;28816;49.852;18.282;2023-02-01T00:37:07;5.830000;;5.840000;5.500000;;;;;;
43196;SPS30;28816;49.852;18.282;2023-02-01T00:42:09;5.560000;;5.510000;5.180000;;;;;;
43196;SPS30;28816;49.852;18.282;2023-02-01T00:47:12;5.690000;;5.650000;5.360000;;;;;;
43196;SPS30;28816;49.852;18.282;2023-02-01T00:52:14;6.080000;;6.030000;5.730000;;;;;;
43196;SPS30;28816;49.852;18.282;2023-02-01T00:57:16;5.760000;;5.720000;5.360000;;;;;;
43196;SPS30;28816;49.852;18.282;2023-02-01T01:02:18;6.430000;;6.360000;5.930000;;;;;;
43196;SPS30;28816;49.852;18.282;2023-02-01T01:07:20;6.290000;;6.340000;5.870000;;;;;;
43196;SPS30;28816;49.852;18.282;2023-02-01T01:12:22;5.790000;;5.720000;5.510000;;;;;;
43196;SPS30;28816;49.852;18.282;2023-02-01T01:17:24;6.230000;;6.250000;5.780000;;;;;;
43196;SPS30;28816;49.852;18.282;2023-02-01T01:22:26;6.230000;;6.200000;5.890000;;;;;;
43196;SPS30;28816;49.852;18.282;2023-02-01T01:27:28;5.880000;;5.800000;5.540000;;;;;;
43196;SPS30;28816;49.852;18.282;2023-02-01T01:32:30;5.400000;;5.360000;5.120000;;;;;;
43196;SPS30;28816;49.852;18.282;2023-02-01T01:37:33;5.070000;;5.090000;4.810000;;;;;;
43196;SPS30;28816;49.852;18.282;2023-02-01T01:42:35;4.730000;;4.610000;4.400000;;;;;;
43196;SPS30;28816;49.852;18.282;2023-02-01T01:47:37;5.220000;;5.160000;4.880000;;;;;;
43196;SPS30;28816;49.852;18.282;2023-02-01T01:52:42;4.840000;;4.820000;4.490000;;;;;;
43196;SPS30;28816;49.852;18.282;2023-02-01T01:57:46;5.050000;;5.010000;4.720000;;;;;;
43196;SPS30;28816;49.852;18.282;2023-02-01T02:02:52;5.320000;;5.250000;5.080000;;;;;;
43196;SPS30;28816;49.852;18.282;2023-02-01T02:07:58;5.150000;;5.150000;4.790000;;;;;;
43196;SPS30;28816;49.852;18.282;2023-02-01T02:13:00;5.320000;;5.280000;5.060000;;;;;;
43196;SPS30;28816;49.852;18.282;2023-02-01T02:18:02;5.700000;;5.600000;5.240000;;;;;;
43196;SPS30;28816;49.852;18.282;2023-02-01T02:23:09;4.950000;;4.920000;4.570000;;;;;;
43196;SPS30;28816;49.852;18.282;2023-02-01T02:28:29;5.720000;;5.710000;5.300000;;;;;;
43196;SPS30;28816;49.852;18.282;2023-02-01T02:33:47;5.060000;;5.020000;4.760000;;;;;;
43196;SPS30;28816;49.852;18.282;2023-02-01T02:38:55;5.270000;;5.260000;4.970000;;;;;;
43196;SPS30;28816;49.852;18.282;2023-02-01T02:44:00;4.950000;;4.880000;4.610000;;;;;;
43196;SPS30;28816;49.852;18.282;2023-02-01T02:49:08;5.890000;;5.720000;5.540000;;;;;;
43196;SPS30;28816;49.852;18.282;2023-02-01T02:54:12;6.590000;;6.440000;6.120000;;;;;;
43196;SPS30;28816;49.852;18.282;2023-02-01T02:59:15;5.630000;;5.660000;5.200000;;;;;;
43196;SPS30;28816;49.852;18.282;2023-02-01T03:04:21;6.400000;;6.360000;5.980000;;;;;;
43196;SPS30;28816;49.852;18.282;2023-02-01T03:09:23;6.460000;;6.390000;5.970000;;;;;;
43196;SPS30;28816;49.852;18.282;2023-02-01T03:14:26;5.330000;;5.290000;5.020000;;;;;;
43196;SPS30;28816;49.852;18.282;2023-02-01T03:19:30;5.200000;;5.110000;4.820000;;;;;;
43196;SPS30;28816;49.852;18.282;2023-02-01T03:24:35;4.560000;;4.560000;4.240000;;;;;;
43196;SPS30;28816;49.852;18.282;2023-02-01T03:29:38;3.700000;;3.750000;3.470000;;;;;;
43196;SPS30;28816;49.852;18.282;2023-02-01T03:34:44;3.380000;;3.380000;3.160000;;;;;;
43196;SPS30;28816;49.852;18.282;2023-02-01T03:39:47;3.380000;;3.290000;3.230000;;;;;;
43196;SPS30;28816;49.852;18.282;2023-02-01T03:44:52;3.460000;;3.360000;3.250000;;;;;;
43196;SPS30;28816;49.852;18.282;2023-02-01T03:49:58;2.820000;;2.770000;2.580000;;;;;;
43196;SPS30;28816;49.852;18.282;2023-02-01T03:55:02;2.470000;;2.420000;2.350000;;;;;;
43196;SPS30;28816;49.852;18.282;2023-02-01T04:00:06;2.040000;;2.010000;1.940000;;;;;;
43196;SPS30;28816;49.852;18.282;2023-02-01T04:05:09;1.950000;;1.940000;1.860000;;;;;;
43196;SPS30;28816;49.852;18.282;2023-02-01T04:10:11;2.310000;;2.320000;2.160000;;;;;;
43196;SPS30;28816;49.852;18.282;2023-02-01T04:15:13;2.360000;;2.330000;2.170000;;;;;;
43196;SPS30;28816;49.852;18.282;2023-02-01T04:20:15;1.860000;;1.810000;1.710000;;;;;;
43196;SPS30;28816;49.852;18.282;2023-02-01T04:25:17;2.230000;;2.200000;2.070000;;;;;;
43196;SPS30;28816;49.852;18.282;2023-02-01T04:30:20;2.470000;;2.460000;2.250000;;;;;;
43196;SPS30;28816;49.852;18.282;2023-02-01T04:35:21;1.630000;;1.610000;1.490000;;;;;;
43196;SPS30;28816;49.852;18.282;2023-02-01T04:40:23;2.410000;;2.360000;2.170000;;;;;;
43196;SPS30;28816;49.852;18.282;2023-02-01T04:45:26;1.850000;;1.790000;1.570000;;;;;;
43196;SPS30;28816;49.852;18.282;2023-02-01T04:50:28;1.220000;;1.180000;1.060000;;;;;;
43196;SPS30;28816;49.852;18.282;2023-02-01T04:55:30;1.100000;;1.070000;0.980000;;;;;;
43196;SPS30;28816;49.852;18.282;2023-02-01T05:00:32;1.410000;;1.380000;1.270000;;;;;;
43196;SPS30;28816;49.852;18.282;2023-02-01T05:05:34;1.480000;;1.440000;1.320000;;;;;;
43196;SPS30;28816;49.852;18.282;2023-02-01T05:10:36;2.630000;;2.570000;2.400000;;;;;;
43196;SPS30;28816;49.852;18.282;2023-02-01T05:15:38;3.200000;;3.160000;2.870000;;;;;;
43196;SPS30;28816;49.852;18.282;2023-02-01T05:20:40;3.230000;;3.140000;2.880000;;;;;;
43196;SPS30;28816;49.852;18.282;2023-02-01T05:25:43;3.180000;;3.110000;2.930000;;;;;;
43196;SPS30;28816;49.852;18.282;2023-02-01T05:30:45;3.050000;;2.980000;2.810000;;;;;;
43196;SPS30;28816;49.852;18.282;2023-02-01T05:35:47;2.800000;;2.780000;2.600000;;;;;;
43196;SPS30;28816;49.852;18.282;2023-02-01T05:40:49;2.680000;;2.620000;2.510000;;;;;;
43196;SPS30;28816;49.852;18.282;2023-02-01T05:45:51;2.950000;;2.960000;2.640000;;;;;;
43196;SPS30;28816;49.852;18.282;2023-02-01T05:50:54;2.630000;;2.630000;2.410000;;;;;;
43196;SPS30;28816;49.852;18.282;2023-02-01T05:55:56;2.800000;;2.790000;2.580000;;;;;;
43196;SPS30;28816;49.852;18.282;2023-02-01T06:00:58;3.170000;;3.110000;2.880000;;;;;;
43196;SPS30;28816;49.852;18.282;2023-02-01T06:06:00;2.780000;;2.770000;2.600000;;;;;;
43196;SPS30;28816;49.852;18.282;2023-02-01T06:11:02;2.970000;;2.980000;2.780000;;;;;;
43196;SPS30;28816;49.852;18.282;2023-02-01T06:16:04;3.220000;;3.190000;2.920000;;;;;;
43196;SPS30;28816;49.852;18.282;2023-02-01T06:21:06;3.320000;;3.290000;3.070000;;;;;;
43196;SPS30;28816;49.852;18.282;2023-02-01T06:26:08;3.290000;;3.260000;3.030000;;;;;;
43196;SPS30;28816;49.852;18.282;2023-02-01T06:31:10;3.520000;;3.510000;3.220000;;;;;;
43196;SPS30;28816;49.852;18.282;2023-02-01T06:36:13;3.290000;;3.200000;3.070000;;;;;;
43196;SPS30;28816;49.852;18.282;2023-02-01T06:41:15;2.980000;;2.930000;2.760000;;;;;;
43196;SPS30;28816;49.852;18.282;2023-02-01T06:46:17;3.050000;;3.020000;2.830000;;;;;;
43196;SPS30;28816;49.852;18.282;2023-02-01T06:51:19;3.240000;;3.090000;2.860000;;;;;;
43196;SPS30;28816;49.852;18.282;2023-02-01T06:56:22;2.520000;;2.510000;2.290000;;;;;;
43196;SPS30;28816;49.852;18.282;2023-02-01T07:01:24;2.910000;;2.820000;2.550000;;;;;;
43196;SPS30;28816;49.852;18.282;2023-02-01T07:06:27;3.440000;;3.310000;3.070000;;;;;;
43196;SPS30;28816;49.852;18.282;2023-02-01T07:11:29;2.700000;;2.700000;2.330000;;;;;;
43196;SPS30;28816;49.852;18.282;2023-02-01T07:16:31;3.330000;;3.180000;3.020000;;;;;;
43196;SPS30;28816;49.852;18.282;2023-02-01T07:21:33;2.860000;;2.810000;2.560000;;;;;;
43196;SPS30;28816;49.852;18.282;2023-02-01T07:26:35;2.450000;;2.380000;2.130000;;;;;;
43196;SPS30;28816;49.852;18.282;2023-02-01T07:31:38;3.020000;;2.900000;2.640000;;;;;;
43196;SPS30;28816;49.852;18.282;2023-02-01T07:36:40;3.240000;;3.240000;2.890000;;;;;;
43196;SPS30;28816;49.852;18.282;2023-02-01T07:41:42;3.510000;;3.460000;3.150000;;;;;;
43196;SPS30;28816;49.852;18.282;2023-02-01T07:46:45;3.780000;;3.720000;3.420000;;;;;;
43196;SPS30;28816;49.852;18.282;2023-02-01T07:51:48;3.860000;;3.830000;3.420000;;;;;;
43196;SPS30;28816;49.852;18.282;2023-02-01T07:56:50;3.150000;;3.110000;2.770000;;;;;;
43196;SPS30;28816;49.852;18.282;2023-02-01T08:01:52;3.630000;;3.500000;3.290000;;;;;;
43196;SPS30;28816;49.852;18.282;2023-02-01T08:06:55;3.130000;;3.020000;2.850000;;;;;;
43196;SPS30;28816;49.852;18.282;2023-02-01T08:11:57;2.840000;;2.780000;2.530000;;;;;;
43196;SPS30;28816;49.852;18.282;2023-02-01T08:16:59;2.820000;;2.860000;2.540000;;;;;;
43196;SPS30;28816;49.852;18.282;2023-02-01T08:22:01;3.000000;;2.940000;2.670000;;;;;;
43196;SPS30;28816;49.852;18.282;2023-02-01T08:27:04;3.460000;;3.400000;3.140000;;;;;;
43196;SPS30;28816;49.852;18.282;2023-02-01T08:32:06;3.610000;;3.410000;3.150000;;;;;;
43196;SPS30;28816;49.852;18.282;2023-02-01T08:37:08;2.880000;;2.810000;2.470000;;;;;;
43196;SPS30;28816;49.852;18.282;2023-02-01T08:42:10;3.490000;;3.380000;3.110000;;;;;;
43196;SPS30;28816;49.852;18.282;2023-02-01T08:47:12;3.400000;;3.320000;3.040000;;;;;;
43196;SPS30;28816;49.852;18.282;2023-02-01T08:52:14;3.260000;;3.160000;2.980000;;;;;;
43196;SPS30;28816;49.852;18.282;2023-02-01T08:57:17;3.240000;;3.160000;2.870000;;;;;;
43196;SPS30;28816;49.852;18.282;2023-02-01T09:02:19;3.080000;;3.060000;2.730000;;;;;;
43196;SPS30;28816;49.852;18.282;2023-02-01T09:07:21;3.460000;;3.250000;2.940000;;;;;;
43196;SPS30;28816;49.852;18.282;2023-02-01T09:12:24;3.260000;;3.140000;2.810000;;;;;;
43196;SPS30;28816;49.852;18.282;2023-02-01T09:17:26;3.640000;;3.530000;3.080000;;;;;;
43196;SPS30;28816;49.852;18.282;2023-02-01T09:22:29;3.460000;;3.360000;3.070000;;;;;;
43196;SPS30;28816;49.852;18.282;2023-02-01T09:27:31;3.200000;;3.110000;2.880000;;;;;;
43196;SPS30;28816;49.852;18.282;2023-02-01T09:32:34;3.610000;;3.530000;3.240000;;;;;;
43196;SPS30;28816;49.852;18.282;2023-02-01T09:37:37;3.740000;;3.570000;3.190000;;;;;;
43196;SPS30;28816;49.852;18.282;2023-02-01T09:42:39;3.650000;;3.490000;3.190000;;;;;;
43196;SPS30;28816;49.852;18.282;2023-02-01T09:47:48;3.480000;;3.370000;3.180000;;;;;;
43196;SPS30;28816;49.852;18.282;2023-02-01T09:52:53;3.740000;;3.610000;3.340000;;;;;;
43196;SPS30;28816;49.852;18.282;2023-02-01T09:57:59;3.650000;;3.530000;3.240000;;;;;;
43196;SPS30;28816;49.852;18.282;2023-02-01T10:03:04;3.260000;;3.070000;2.730000;;;;;;
43196;SPS30;28816;49.852;18.282;2023-02-01T10:08:10;4.460000;;4.270000;3.930000;;;;;;
43196;SPS30;28816;49.852;18.282;2023-02-01T10:13:15;4.470000;;4.220000;3.830000;;;;;;
43196;SPS30;28816;49.852;18.282;2023-02-01T10:18:23;3.690000;;3.590000;3.320000;;;;;;
43196;SPS30;28816;49.852;18.282;2023-02-01T10:23:34;4.420000;;4.320000;4.000000;;;;;;
43196;SPS30;28816;49.852;18.282;2023-02-01T10:28:50;4.010000;;3.940000;3.650000;;;;;;
43196;SPS30;28816;49.852;18.282;2023-02-01T10:33:53;4.060000;;3.990000;3.700000;;;;;;
43196;SPS30;28816;49.852;18.282;2023-02-01T10:38:57;4.750000;;4.650000;4.310000;;;;;;
43196;SPS30;28816;49.852;18.282;2023-02-01T10:43:59;4.120000;;4.000000;3.750000;;;;;;
43196;SPS30;28816;49.852;18.282;2023-02-01T10:49:02;3.830000;;3.720000;3.420000;;;;;;
43196;SPS30;28816;49.852;18.282;2023-02-01T10:54:05;5.020000;;4.890000;4.590000;;;;;;
43196;SPS30;28816;49.852;18.282;2023-02-01T10:59:11;4.030000;;3.930000;3.720000;;;;;;
43196;SPS30;28816;49.852;18.282;2023-02-01T11:04:15;4.160000;;4.160000;3.890000;;;;;;
43196;SPS30;28816;49.852;18.282;2023-02-01T11:09:18;4.540000;;4.490000;4.190000;;;;;;
43196;SPS30;28816;49.852;18.282;2023-02-01T11:14:21;3.700000;;3.720000;3.480000;;;;;;
43196;SPS30;28816;49.852;18.282;2023-02-01T11:19:32;4.580000;;4.460000;4.200000;;;;;;
43196;SPS30;28816;49.852;18.282;2023-02-01T11:24:34;4.120000;;4.070000;3.730000;;;;;;
43196;SPS30;28816;49.852;18.282;2023-02-01T11:29:36;4.040000;;3.920000;3.690000;;;;;;
43196;SPS30;28816;49.852;18.282;2023-02-01T11:34:41;4.760000;;4.550000;4.080000;;;;;;
43196;SPS30;28816;49.852;18.282;2023-02-01T11:39:47;3.910000;;3.780000;3.380000;;;;;;
43196;SPS30;28816;49.852;18.282;2023-02-01T11:44:54;3.970000;;3.930000;3.670000;;;;;;
43196;SPS30;28816;49.852;18.282;2023-02-01T11:50:29;4.520000;;4.450000;4.030000;;;;;;
43196;SPS30;28816;49.852;18.282;2023-02-01T11:55:36;4.340000;;4.250000;3.740000;;;;;;
43196;SPS30;28816;49.852;18.282;2023-02-01T12:00:42;3.860000;;3.750000;3.370000;;;;;;
43196;SPS30;28816;49.852;18.282;2023-02-01T12:05:51;3.950000;;3.830000;3.370000;;;;;;
43196;SPS30;28816;49.852;18.282;2023-02-01T12:10:58;2.950000;;2.820000;2.620000;;;;;;
43196;SPS30;28816;49.852;18.282;2023-02-01T12:16:08;2.710000;;2.660000;2.360000;;;;;;
43196;SPS30;28816;49.852;18.282;2023-02-01T12:21:19;2.240000;;2.160000;2.030000;;;;;;
43196;SPS30;28816;49.852;18.282;2023-02-01T12:26:28;1.930000;;1.870000;1.590000;;;;;;
43196;SPS30;28816;49.852;18.282;2023-02-01T12:31:38;2.180000;;2.090000;1.850000;;;;;;
43196;SPS30;28816;49.852;18.282;2023-02-01T12:36:45;2.630000;;2.540000;2.260000;;;;;;
43196;SPS30;28816;49.852;18.282;2023-02-01T12:41:52;2.870000;;2.720000;2.460000;;;;;;
43196;SPS30;28816;49.852;18.282;2023-02-01T12:46:58;2.450000;;2.370000;2.140000;;;;;;
43196;SPS30;28816;49.852;18.282;2023-02-01T12:52:04;2.050000;;1.980000;1.880000;;;;;;
43196;SPS30;28816;49.852;18.282;2023-02-01T12:57:10;2.250000;;2.210000;2.010000;;;;;;
43196;SPS30;28816;49.852;18.282;2023-02-01T13:02:14;2.100000;;2.030000;1.850000;;;;;;
43196;SPS30;28816;49.852;18.282;2023-02-01T13:07:23;1.940000;;1.880000;1.720000;;;;;;
43196;SPS30;28816;49.852;18.282;2023-02-01T13:12:27;2.360000;;2.310000;2.100000;;;;;;
43196;SPS30;28816;49.852;18.282;2023-02-01T13:17:33;3.080000;;3.030000;2.830000;;;;;;
43196;SPS30;28816;49.852;18.282;2023-02-01T13:22:37;2.220000;;2.150000;1.970000;;;;;;
43196;SPS30;28816;49.852;18.282;2023-02-01T13:27:42;2.830000;;2.850000;2.620000;;;;;;
43196;SPS30;28816;49.852;18.282;2023-02-01T13:32:45;2.350000;;2.340000;2.170000;;;;;;
43196;SPS30;28816;49.852;18.282;2023-02-01T13:37:55;2.240000;;2.260000;2.060000;;;;;;
43196;SPS30;28816;49.852;18.282;2023-02-01T13:43:05;3.020000;;3.040000;2.760000;;;;;;
43196;SPS30;28816;49.852;18.282;2023-02-01T13:48:12;2.670000;;2.650000;2.540000;;;;;;
43196;SPS30;28816;49.852;18.282;2023-02-01T13:53:20;2.450000;;2.450000;2.260000;;;;;;
43196;SPS30;28816;49.852;18.282;2023-02-01T13:58:26;3.300000;;3.280000;3.140000;;;;;;
43196;SPS30;28816;49.852;18.282;2023-02-01T14:03:30;3.370000;;3.410000;3.020000;;;;;;
43196;SPS30;28816;49.852;18.282;2023-02-01T14:08:43;3.220000;;3.210000;3.000000;;;;;;
43196;SPS30;28816;49.852;18.282;2023-02-01T14:14:05;3.180000;;3.210000;2.930000;;;;;;
43196;SPS30;28816;49.852;18.282;2023-02-01T14:19:40;3.640000;;3.650000;3.390000;;;;;;
43196;SPS30;28816;49.852;18.282;2023-02-01T14:24:42;2.860000;;2.830000;2.720000;;;;;;
43196;SPS30;28816;49.852;18.282;2023-02-01T14:29:49;4.000000;;3.930000;3.690000;;;;;;
43196;SPS30;28816;49.852;18.282;2023-02-01T14:34:53;4.500000;;4.460000;4.160000;;;;;;
43196;SPS30;28816;49.852;18.282;2023-02-01T14:39:58;3.550000;;3.510000;3.320000;;;;;;
43196;SPS30;28816;49.852;18.282;2023-02-01T14:45:01;2.910000;;2.860000;2.750000;;;;;;
43196;SPS30;28816;49.852;18.282;2023-02-01T14:51:08;2.780000;;2.770000;2.600000;;;;;;
43196;SPS30;28816;49.852;18.282;2023-02-01T14:56:13;3.100000;;3.120000;2.900000;;;;;;
43196;SPS30;28816;49.852;18.282;2023-02-01T15:01:17;3.180000;;3.140000;2.960000;;;;;;
43196;SPS30;28816;49.852;18.282;2023-02-01T15:06:21;2.530000;;2.520000;2.340000;;;;;;
43196;SPS30;28816;49.852;18.282;2023-02-01T15:11:29;2.410000;;2.370000;2.240000;;;;;;
43196;SPS30;28816;49.852;18.282;2023-02-01T15:16:31;2.660000;;2.630000;2.460000;;;;;;
43196;SPS30;28816;49.852;18.282;2023-02-01T15:21:33;2.830000;;2.810000;2.680000;;;;;;
43196;SPS30;28816;49.852;18.282;2023-02-01T15:26:42;2.380000;;2.390000;2.270000;;;;;;
43196;SPS30;28816;49.852;18.282;2023-02-01T15:31:44;2.700000;;2.700000;2.560000;;;;;;
43196;SPS30;28816;49.852;18.282;2023-02-01T15:36:47;2.660000;;2.650000;2.450000;;;;;;
43196;SPS30;28816;49.852;18.282;2023-02-01T15:41:49;2.680000;;2.670000;2.520000;;;;;;
43196;SPS30;28816;49.852;18.282;2023-02-01T15:46:53;2.640000;;2.580000;2.470000;;;;;;
43196;SPS30;28816;49.852;18.282;2023-02-01T15:51:56;2.570000;;2.590000;2.420000;;;;;;
43196;SPS30;28816;49.852;18.282;2023-02-01T15:57:00;2.080000;;2.050000;1.990000;;;;;;
43196;SPS30;28816;49.852;18.282;2023-02-01T16:02:02;2.260000;;2.270000;2.120000;;;;;;
43196;SPS30;28816;49.852;18.282;2023-02-01T16:07:23;2.460000;;2.480000;2.290000;;;;;;
43196;SPS30;28816;49.852;18.282;2023-02-01T16:12:27;3.130000;;3.130000;2.940000;;;;;;
43196;SPS30;28816;49.852;18.282;2023-02-01T16:17:32;2.880000;;2.860000;2.700000;;;;;;
43196;SPS30;28816;49.852;18.282;2023-02-01T16:22:35;2.260000;;2.260000;2.090000;;;;;;
43196;SPS30;28816;49.852;18.282;2023-02-01T16:27:37;2.510000;;2.500000;2.370000;;;;;;
43196;SPS30;28816;49.852;18.282;2023-02-01T16:32:39;2.270000;;2.260000;2.160000;;;;;;
43196;SPS30;28816;49.852;18.282;2023-02-01T16:37:41;2.440000;;2.450000;2.320000;;;;;;
43196;SPS30;28816;49.852;18.282;2023-02-01T16:42:43;3.790000;;3.770000;3.580000;;;;;;
43196;SPS30;28816;49.852;18.282;2023-02-01T16:47:47;2.720000;;2.680000;2.600000;;;;;;
43196;SPS30;28816;49.852;18.282;2023-02-01T16:52:52;2.500000;;2.530000;2.320000;;;;;;
43196;SPS30;28816;49.852;18.282;2023-02-01T16:57:54;3.100000;;3.050000;2.950000;;;;;;
43196;SPS30;28816;49.852;18.282;2023-02-01T17:02:56;3.870000;;3.820000;3.690000;;;;;;
43196;SPS30;28816;49.852;18.282;2023-02-01T17:07:58;3.430000;;3.370000;3.200000;;;;;;
43196;SPS30;28816;49.852;18.282;2023-02-01T17:13:03;3.190000;;3.190000;2.940000;;;;;;
43196;SPS30;28816;49.852;18.282;2023-02-01T17:18:08;3.620000;;3.620000;3.360000;;;;;;
43196;SPS30;28816;49.852;18.282;2023-02-01T17:23:13;3.600000;;3.540000;3.360000;;;;;;
43196;SPS30;28816;49.852;18.282;2023-02-01T17:28:16;3.320000;;3.320000;3.070000;;;;;;
43196;SPS30;28816;49.852;18.282;2023-02-01T17:33:18;3.280000;;3.270000;3.080000;;;;;;
43196;SPS30;28816;49.852;18.282;2023-02-01T17:38:22;2.680000;;2.690000;2.520000;;;;;;
43196;SPS30;28816;49.852;18.282;2023-02-01T17:43:25;2.730000;;2.740000;2.500000;;;;;;
43196;SPS30;28816;49.852;18.282;2023-02-01T17:48:27;3.080000;;3.080000;2.890000;;;;;;
43196;SPS30;28816;49.852;18.282;2023-02-01T17:53:29;3.500000;;3.460000;3.290000;;;;;;
43196;SPS30;28816;49.852;18.282;2023-02-01T17:58:31;3.850000;;3.910000;3.580000;;;;;;
43196;SPS30;28816;49.852;18.282;2023-02-01T18:03:33;4.710000;;4.740000;4.440000;;;;;;
43196;SPS30;28816;49.852;18.282;2023-02-01T18:08:36;3.840000;;3.850000;3.570000;;;;;;
43196;SPS30;28816;49.852;18.282;2023-02-01T18:13:38;4.120000;;4.060000;3.850000;;;;;;
43196;SPS30;28816;49.852;18.282;2023-02-01T18:18:40;4.330000;;4.260000;4.050000;;;;;;
43196;SPS30;28816;49.852;18.282;2023-02-01T18:23:42;5.700000;;5.570000;5.300000;;;;;;
43196;SPS30;28816;49.852;18.282;2023-02-01T18:28:44;4.970000;;4.920000;4.620000;;;;;;
43196;SPS30;28816;49.852;18.282;2023-02-01T18:33:46;4.540000;;4.470000;4.280000;;;;;;
43196;SPS30;28816;49.852;18.282;2023-02-01T18:38:48;5.720000;;5.680000;5.360000;;;;;;
43196;SPS30;28816;49.852;18.282;2023-02-01T18:43:51;4.780000;;4.750000;4.370000;;;;;;
43196;SPS30;28816;49.852;18.282;2023-02-01T18:48:53;5.200000;;5.160000;4.860000;;;;;;
43196;SPS30;28816;49.852;18.282;2023-02-01T18:53:55;5.940000;;5.850000;5.500000;;;;;;
43196;SPS30;28816;49.852;18.282;2023-02-01T18:58:57;4.680000;;4.600000;4.440000;;;;;;
43196;SPS30;28816;49.852;18.282;2023-02-01T19:03:59;5.850000;;5.710000;5.260000;;;;;;
43196;SPS30;28816;49.852;18.282;2023-02-01T19:09:02;5.350000;;5.350000;5.030000;;;;;;
43196;SPS30;28816;49.852;18.282;2023-02-01T19:14:04;5.220000;;5.130000;4.890000;;;;;;
43196;SPS30;28816;49.852;18.282;2023-02-01T19:19:06;5.110000;;5.070000;4.690000;;;;;;
43196;SPS30;28816;49.852;18.282;2023-02-01T19:24:08;5.160000;;5.130000;4.750000;;;;;;
43196;SPS30;28816;49.852;18.282;2023-02-01T19:29:10;3.840000;;3.780000;3.470000;;;;;;
43196;SPS30;28816;49.852;18.282;2023-02-01T19:34:12;4.760000;;4.660000;4.430000;;;;;;
43196;SPS30;28816;49.852;18.282;2023-02-01T19:39:14;4.650000;;4.680000;4.220000;;;;;;
43196;SPS30;28816;49.852;18.282;2023-02-01T19:44:16;4.230000;;4.110000;3.860000;;;;;;
43196;SPS30;28816;49.852;18.282;2023-02-01T19:49:18;4.370000;;4.300000;4.040000;;;;;;
43196;SPS30;28816;49.852;18.282;2023-02-01T19:54:20;4.550000;;4.460000;4.140000;;;;;;
43196;SPS30;28816;49.852;18.282;2023-02-01T19:59:22;4.090000;;4.040000;3.710000;;;;;;
43196;SPS30;28816;49.852;18.282;2023-02-01T20:04:25;4.400000;;4.330000;3.910000;;;;;;
43196;SPS30;28816;49.852;18.282;2023-02-01T20:09:26;4.350000;;4.210000;3.920000;;;;;;
43196;SPS30;28816;49.852;18.282;2023-02-01T20:14:29;4.030000;;4.000000;3.710000;;;;;;
43196;SPS30;28816;49.852;18.282;2023-02-01T20:19:31;3.820000;;3.740000;3.520000;;;;;;
43196;SPS30;28816;49.852;18.282;2023-02-01T20:24:33;4.200000;;4.150000;3.770000;;;;;;
43196;SPS30;28816;49.852;18.282;2023-02-01T20:29:36;4.430000;;4.270000;4.030000;;;;;;
43196;SPS30;28816;49.852;18.282;2023-02-01T20:34:38;5.130000;;5.020000;4.520000;;;;;;
43196;SPS30;28816;49.852;18.282;2023-02-01T20:39:40;4.300000;;4.140000;3.820000;;;;;;
43196;SPS30;28816;49.852;18.282;2023-02-01T20:44:42;4.790000;;4.650000;4.220000;;;;;;
43196;SPS30;28816;49.852;18.282;2023-02-01T20:49:44;4.420000;;4.420000;4.020000;;;;;;
43196;SPS30;28816;49.852;18.282;2023-02-01T20:54:46;4.390000;;4.380000;4.070000;;;;;;
43196;SPS30;28816;49.852;18.282;2023-02-01T20:59:48;4.550000;;4.430000;4.120000;;;;;;
43196;SPS30;28816;49.852;18.282;2023-02-01T21:04:50;5.420000;;5.360000;5.040000;;;;;;
43196;SPS30;28816;49.852;18.282;2023-02-01T21:09:52;4.480000;;4.490000;4.220000;;;;;;
43196;SPS30;28816;49.852;18.282;2023-02-01T21:14:55;4.120000;;4.040000;3.670000;;;;;;
43196;SPS30;28816;49.852;18.282;2023-02-01T21:19:57;4.200000;;4.150000;3.890000;;;;;;
43196;SPS30;28816;49.852;18.282;2023-02-01T21:24:59;4.580000;;4.550000;4.200000;;;;;;
43196;SPS30;28816;49.852;18.282;2023-02-01T21:30:01;4.820000;;4.730000;4.430000;;;;;;
43196;SPS30;28816;49.852;18.282;2023-02-01T21:35:04;4.550000;;4.540000;4.130000;;;;;;
43196;SPS30;28816;49.852;18.282;2023-02-01T21:40:06;4.220000;;4.220000;3.870000;;;;;;
43196;SPS30;28816;49.852;18.282;2023-02-01T21:45:09;4.160000;;4.120000;3.810000;;;;;;
43196;SPS30;28816;49.852;18.282;2023-02-01T21:50:11;4.020000;;3.940000;3.690000;;;;;;
43196;SPS30;28816;49.852;18.282;2023-02-01T21:55:14;4.650000;;4.520000;4.130000;;;;;;
43196;SPS30;28816;49.852;18.282;2023-02-01T22:00:17;3.850000;;3.770000;3.580000;;;;;;
43196;SPS30;28816;49.852;18.282;2023-02-01T22:05:19;3.820000;;3.800000;3.620000;;;;;;
43196;SPS30;28816;49.852;18.282;2023-02-01T22:10:21;4.530000;;4.440000;4.090000;;;;;;
43196;SPS30;28816;49.852;18.282;2023-02-01T22:15:23;3.930000;;3.780000;3.560000;;;;;;
43196;SPS30;28816;49.852;18.282;2023-02-01T22:20:25;3.740000;;3.710000;3.290000;;;;;;
43196;SPS30;28816;49.852;18.282;2023-02-01T22:25:27;3.690000;;3.630000;3.350000;;;;;;
43196;SPS30;28816;49.852;18.282;2023-02-01T22:30:29;3.830000;;3.690000;3.490000;;;;;;
43196;SPS30;28816;49.852;18.282;2023-02-01T22:35:31;3.650000;;3.560000;3.420000;;;;;;
43196;SPS30;28816;49.852;18.282;2023-02-01T22:40:35;3.580000;;3.570000;3.240000;;;;;;
43196;SPS30;28816;49.852;18.282;2023-02-01T22:45:37;2.960000;;2.960000;2.720000;;;;;;
43196;SPS30;28816;49.852;18.282;2023-02-01T22:50:40;3.130000;;3.130000;2.840000;;;;;;
43196;SPS30;28816;49.852;18.282;2023-02-01T22:55:42;2.910000;;2.880000;2.670000;;;;;;
43196;SPS30;28816;49.852;18.282;2023-02-01T23:00:44;2.470000;;2.460000;2.280000;;;;;;
43196;SPS30;28816;49.852;18.282;2023-02-01T23:05:46;2.390000;;2.390000;2.200000;;;;;;
43196;SPS30;28816;49.852;18.282;2023-02-01T23:10:48;3.610000;;3.540000;3.310000;;;;;;
43196;SPS30;28816;49.852;18.282;2023-02-01T23:15:56;2.470000;;2.380000;2.230000;;;;;;
43196;SPS30;28816;49.852;18.282;2023-02-01T23:20:58;1.550000;;1.510000;1.420000;;;;;;
43196;SPS30;28816;49.852;18.282;2023-02-01T23:26:02;1.730000;;1.690000;1.570000;;;;;;